< < Back
Terminal Aerodrome Forecast


Current Version              Previous Versions:   1  2  3  4  5  6  7  8  9  

Terminal Aerodrome Forecast

331
FTUS44 KBMX 311344 AAA
TAFTCL
TAF AMD
KTCL 311344Z 3114/0112 00000KT 6SM BR OVC005
     FM311500 03003KT 6SM BR OVC015
     FM311700 01005KT P6SM OVC025
     FM311900 36005KT P6SM SCT250
     FM010000 VRB02KT P6SM SKC=

Latest METAR

044
SAUS70 KWBC 010000 RRM
MTRTCL
METAR KTCL 312353Z 04007KT 10SM CLR 28/20 A3004 RMK AO2 SLP169 T02830200
10311 20283 58002


USA.gov is the U.S. government's official web portal to all federal, state and local government web resources and services.